sensor_id;sensor_type;location;lat;lon;timestamp;P1;durP1;ratioP1;P2;durP2;ratioP2
15667;SDS011;7934;48.710;9.024;2023-04-24T00:01:43;1.35;;;0.90;;
15667;SDS011;7934;48.710;9.024;2023-04-24T00:04:10;1.63;;;0.82;;
15667;SDS011;7934;48.710;9.024;2023-04-24T00:06:41;1.53;;;0.90;;
15667;SDS011;7934;48.710;9.024;2023-04-24T00:09:08;1.42;;;1.00;;
15667;SDS011;7934;48.710;9.024;2023-04-24T00:11:36;1.63;;;1.20;;
15667;SDS011;7934;48.710;9.024;2023-04-24T00:14:03;2.50;;;1.20;;
15667;SDS011;7934;48.710;9.024;2023-04-24T00:16:30;1.38;;;1.00;;
15667;SDS011;7934;48.710;9.024;2023-04-24T00:19:02;2.40;;;1.00;;
15667;SDS011;7934;48.710;9.024;2023-04-24T00:21:30;1.30;;;1.10;;
15667;SDS011;7934;48.710;9.024;2023-04-24T00:23:58;0.93;;;0.93;;
15667;SDS011;7934;48.710;9.024;2023-04-24T00:26:25;1.77;;;1.08;;
15667;SDS011;7934;48.710;9.024;2023-04-24T00:28:53;1.83;;;0.93;;
15667;SDS011;7934;48.710;9.024;2023-04-24T00:31:20;3.47;;;1.13;;
15667;SDS011;7934;48.710;9.024;2023-04-24T00:33:47;1.55;;;1.00;;
15667;SDS011;7934;48.710;9.024;2023-04-24T00:36:15;0.90;;;0.82;;
15667;SDS011;7934;48.710;9.024;2023-04-24T00:38:44;2.80;;;1.02;;
15667;SDS011;7934;48.710;9.024;2023-04-24T00:41:11;2.00;;;1.13;;
15667;SDS011;7934;48.710;9.024;2023-04-24T00:43:39;1.10;;;1.00;;
15667;SDS011;7934;48.710;9.024;2023-04-24T00:46:06;1.80;;;1.10;;
15667;SDS011;7934;48.710;9.024;2023-04-24T00:48:34;1.40;;;0.95;;
15667;SDS011;7934;48.710;9.024;2023-04-24T00:51:01;1.20;;;0.90;;
15667;SDS011;7934;48.710;9.024;2023-04-24T00:53:30;1.48;;;1.00;;
15667;SDS011;7934;48.710;9.024;2023-04-24T00:55:57;0.77;;;0.75;;
15667;SDS011;7934;48.710;9.024;2023-04-24T00:58:24;1.50;;;0.90;;
15667;SDS011;7934;48.710;9.024;2023-04-24T01:00:52;1.00;;;0.90;;
15667;SDS011;7934;48.710;9.024;2023-04-24T01:03:20;2.20;;;0.90;;
15667;SDS011;7934;48.710;9.024;2023-04-24T01:05:47;1.88;;;0.90;;
15667;SDS011;7934;48.710;9.024;2023-04-24T01:08:15;1.80;;;0.80;;
15667;SDS011;7934;48.710;9.024;2023-04-24T01:10:44;1.65;;;0.90;;
15667;SDS011;7934;48.710;9.024;2023-04-24T01:13:12;1.83;;;0.90;;
15667;SDS011;7934;48.710;9.024;2023-04-24T01:15:39;1.00;;;0.80;;
15667;SDS011;7934;48.710;9.024;2023-04-24T01:18:06;1.73;;;0.98;;
15667;SDS011;7934;48.710;9.024;2023-04-24T01:20:34;1.15;;;0.90;;
15667;SDS011;7934;48.710;9.024;2023-04-24T01:23:06;2.60;;;1.00;;
15667;SDS011;7934;48.710;9.024;2023-04-24T01:25:33;1.30;;;1.13;;
15667;SDS011;7934;48.710;9.024;2023-04-24T01:28:01;1.33;;;1.00;;
15667;SDS011;7934;48.710;9.024;2023-04-24T01:30:31;0.90;;;0.90;;
15667;SDS011;7934;48.710;9.024;2023-04-24T01:32:59;0.95;;;0.95;;
15667;SDS011;7934;48.710;9.024;2023-04-24T01:35:26;1.08;;;1.08;;
15667;SDS011;7934;48.710;9.024;2023-04-24T01:37:53;3.13;;;1.20;;
15667;SDS011;7934;48.710;9.024;2023-04-24T01:40:22;0.95;;;0.93;;
15667;SDS011;7934;48.710;9.024;2023-04-24T01:42:49;1.02;;;1.00;;
15667;SDS011;7934;48.710;9.024;2023-04-24T01:45:17;1.30;;;1.02;;
15667;SDS011;7934;48.710;9.024;2023-04-24T01:47:44;1.08;;;0.90;;
15667;SDS011;7934;48.710;9.024;2023-04-24T01:50:14;1.15;;;1.00;;
15667;SDS011;7934;48.710;9.024;2023-04-24T01:52:41;2.20;;;1.20;;
15667;SDS011;7934;48.710;9.024;2023-04-24T01:55:09;1.57;;;1.20;;
15667;SDS011;7934;48.710;9.024;2023-04-24T01:57:37;1.35;;;0.90;;
15667;SDS011;7934;48.710;9.024;2023-04-24T02:00:05;1.87;;;1.00;;
15667;SDS011;7934;48.710;9.024;2023-04-24T02:02:32;1.20;;;1.10;;
15667;SDS011;7934;48.710;9.024;2023-04-24T02:05:00;1.48;;;0.98;;
15667;SDS011;7934;48.710;9.024;2023-04-24T02:07:27;1.35;;;0.80;;
15667;SDS011;7934;48.710;9.024;2023-04-24T02:09:55;1.77;;;1.00;;
15667;SDS011;7934;48.710;9.024;2023-04-24T02:12:23;1.52;;;1.00;;
15667;SDS011;7934;48.710;9.024;2023-04-24T02:14:52;1.75;;;0.90;;
15667;SDS011;7934;48.710;9.024;2023-04-24T02:17:19;3.17;;;0.95;;
15667;SDS011;7934;48.710;9.024;2023-04-24T02:22:29;1.70;;;1.00;;
15667;SDS011;7934;48.710;9.024;2023-04-24T02:25:00;1.40;;;1.30;;
15667;SDS011;7934;48.710;9.024;2023-04-24T02:27:30;1.85;;;1.25;;
15667;SDS011;7934;48.710;9.024;2023-04-24T02:29:58;2.47;;;1.17;;
15667;SDS011;7934;48.710;9.024;2023-04-24T02:32:25;3.83;;;1.17;;
15667;SDS011;7934;48.710;9.024;2023-04-24T02:37:59;1.70;;;0.98;;
15667;SDS011;7934;48.710;9.024;2023-04-24T02:40:43;1.83;;;1.33;;
15667;SDS011;7934;48.710;9.024;2023-04-24T02:46:07;2.58;;;1.38;;
15667;SDS011;7934;48.710;9.024;2023-04-24T02:48:34;1.60;;;1.40;;
15667;SDS011;7934;48.710;9.024;2023-04-24T02:51:02;2.78;;;1.27;;
15667;SDS011;7934;48.710;9.024;2023-04-24T02:53:29;2.38;;;1.20;;
15667;SDS011;7934;48.710;9.024;2023-04-24T02:55:56;3.47;;;1.52;;
15667;SDS011;7934;48.710;9.024;2023-04-24T02:58:23;2.27;;;1.30;;
15667;SDS011;7934;48.710;9.024;2023-04-24T03:00:52;1.40;;;1.30;;
15667;SDS011;7934;48.710;9.024;2023-04-24T03:03:21;1.52;;;1.25;;
15667;SDS011;7934;48.710;9.024;2023-04-24T03:05:49;1.80;;;1.20;;
15667;SDS011;7934;48.710;9.024;2023-04-24T03:08:16;3.55;;;1.40;;
15667;SDS011;7934;48.710;9.024;2023-04-24T03:10:43;2.38;;;1.40;;
15667;SDS011;7934;48.710;9.024;2023-04-24T03:13:10;1.67;;;1.58;;
15667;SDS011;7934;48.710;9.024;2023-04-24T03:15:38;1.40;;;1.30;;
15667;SDS011;7934;48.710;9.024;2023-04-24T03:18:05;2.55;;;1.60;;
15667;SDS011;7934;48.710;9.024;2023-04-24T03:20:33;1.67;;;1.58;;
15667;SDS011;7934;48.710;9.024;2023-04-24T03:23:01;1.80;;;1.48;;
15667;SDS011;7934;48.710;9.024;2023-04-24T03:25:29;2.97;;;1.27;;
15667;SDS011;7934;48.710;9.024;2023-04-24T03:27:56;2.30;;;1.50;;
15667;SDS011;7934;48.710;9.024;2023-04-24T03:30:23;1.70;;;1.40;;
15667;SDS011;7934;48.710;9.024;2023-04-24T03:32:50;1.88;;;1.30;;
15667;SDS011;7934;48.710;9.024;2023-04-24T03:35:18;2.60;;;1.60;;
15667;SDS011;7934;48.710;9.024;2023-04-24T03:37:47;2.13;;;1.77;;
15667;SDS011;7934;48.710;9.024;2023-04-24T03:40:17;3.03;;;1.57;;
15667;SDS011;7934;48.710;9.024;2023-04-24T03:42:45;2.03;;;1.27;;
15667;SDS011;7934;48.710;9.024;2023-04-24T03:45:12;1.20;;;1.20;;
15667;SDS011;7934;48.710;9.024;2023-04-24T03:47:40;4.35;;;1.30;;
15667;SDS011;7934;48.710;9.024;2023-04-24T03:50:07;1.48;;;1.20;;
15667;SDS011;7934;48.710;9.024;2023-04-24T03:52:34;2.47;;;1.50;;
15667;SDS011;7934;48.710;9.024;2023-04-24T03:55:03;1.48;;;1.25;;
15667;SDS011;7934;48.710;9.024;2023-04-24T03:57:31;1.83;;;1.42;;
15667;SDS011;7934;48.710;9.024;2023-04-24T03:59:58;2.05;;;1.38;;
15667;SDS011;7934;48.710;9.024;2023-04-24T04:02:29;1.45;;;1.20;;
15667;SDS011;7934;48.710;9.024;2023-04-24T04:04:56;2.08;;;1.15;;
15667;SDS011;7934;48.710;9.024;2023-04-24T04:07:23;1.02;;;1.00;;
15667;SDS011;7934;48.710;9.024;2023-04-24T04:09:50;1.17;;;1.08;;
15667;SDS011;7934;48.710;9.024;2023-04-24T04:12:19;2.03;;;1.00;;
15667;SDS011;7934;48.710;9.024;2023-04-24T04:14:46;1.88;;;1.10;;
15667;SDS011;7934;48.710;9.024;2023-04-24T04:17:13;2.70;;;1.17;;
15667;SDS011;7934;48.710;9.024;2023-04-24T04:19:41;1.15;;;0.90;;
15667;SDS011;7934;48.710;9.024;2023-04-24T04:22:08;2.10;;;1.00;;
15667;SDS011;7934;48.710;9.024;2023-04-24T04:24:36;2.40;;;1.52;;
15667;SDS011;7934;48.710;9.024;2023-04-24T04:27:05;3.30;;;1.90;;
15667;SDS011;7934;48.710;9.024;2023-04-24T04:29:35;2.10;;;1.60;;
15667;SDS011;7934;48.710;9.024;2023-04-24T04:32:02;2.50;;;1.60;;
15667;SDS011;7934;48.710;9.024;2023-04-24T04:34:29;2.80;;;1.65;;
15667;SDS011;7934;48.710;9.024;2023-04-24T04:36:57;2.70;;;1.63;;
15667;SDS011;7934;48.710;9.024;2023-04-24T04:39:27;3.55;;;2.60;;
15667;SDS011;7934;48.710;9.024;2023-04-24T04:41:54;7.10;;;4.50;;
15667;SDS011;7934;48.710;9.024;2023-04-24T04:44:23;6.10;;;4.25;;
15667;SDS011;7934;48.710;9.024;2023-04-24T04:46:54;4.40;;;2.80;;
15667;SDS011;7934;48.710;9.024;2023-04-24T04:49:21;2.30;;;2.10;;
15667;SDS011;7934;48.710;9.024;2023-04-24T04:51:49;2.17;;;2.08;;
15667;SDS011;7934;48.710;9.024;2023-04-24T04:54:16;2.40;;;2.10;;
15667;SDS011;7934;48.710;9.024;2023-04-24T04:56:44;1.90;;;1.80;;
15667;SDS011;7934;48.710;9.024;2023-04-24T04:59:11;2.13;;;2.03;;
15667;SDS011;7934;48.710;9.024;2023-04-24T05:01:38;2.35;;;2.10;;
15667;SDS011;7934;48.710;9.024;2023-04-24T05:04:07;2.08;;;1.85;;
15667;SDS011;7934;48.710;9.024;2023-04-24T05:06:34;1.90;;;1.80;;
15667;SDS011;7934;48.710;9.024;2023-04-24T05:09:01;1.95;;;1.80;;
15667;SDS011;7934;48.710;9.024;2023-04-24T05:11:29;1.90;;;1.80;;
15667;SDS011;7934;48.710;9.024;2023-04-24T05:13:56;2.83;;;2.00;;
15667;SDS011;7934;48.710;9.024;2023-04-24T05:16:23;1.90;;;1.80;;
15667;SDS011;7934;48.710;9.024;2023-04-24T05:18:50;2.22;;;2.00;;
15667;SDS011;7934;48.710;9.024;2023-04-24T05:21:19;2.13;;;2.03;;
15667;SDS011;7934;48.710;9.024;2023-04-24T05:23:46;2.10;;;2.00;;
15667;SDS011;7934;48.710;9.024;2023-04-24T05:26:13;1.97;;;1.87;;
15667;SDS011;7934;48.710;9.024;2023-04-24T05:28:41;2.90;;;2.20;;
15667;SDS011;7934;48.710;9.024;2023-04-24T05:31:08;2.40;;;2.30;;
15667;SDS011;7934;48.710;9.024;2023-04-24T05:33:35;2.92;;;2.28;;
15667;SDS011;7934;48.710;9.024;2023-04-24T05:36:02;2.20;;;1.92;;
15667;SDS011;7934;48.710;9.024;2023-04-24T05:38:31;2.30;;;2.20;;
15667;SDS011;7934;48.710;9.024;2023-04-24T05:40:59;2.97;;;2.13;;
15667;SDS011;7934;48.710;9.024;2023-04-24T05:43:26;2.70;;;2.55;;
15667;SDS011;7934;48.710;9.024;2023-04-24T05:45:53;3.50;;;2.38;;
15667;SDS011;7934;48.710;9.024;2023-04-24T05:48:20;2.70;;;2.50;;
15667;SDS011;7934;48.710;9.024;2023-04-24T05:56:40;2.80;;;2.60;;
15667;SDS011;7934;48.710;9.024;2023-04-24T07:05:34;2.53;;;1.92;;
15667;SDS011;7934;48.710;9.024;2023-04-24T07:08:03;1.85;;;1.60;;
15667;SDS011;7934;48.710;9.024;2023-04-24T07:10:32;1.98;;;1.88;;
15667;SDS011;7934;48.710;9.024;2023-04-24T07:13:00;3.00;;;2.00;;
15667;SDS011;7934;48.710;9.024;2023-04-24T07:15:27;2.83;;;2.13;;
15667;SDS011;7934;48.710;9.024;2023-04-24T07:17:55;2.58;;;2.20;;
15667;SDS011;7934;48.710;9.024;2023-04-24T07:20:22;2.20;;;2.00;;
15667;SDS011;7934;48.710;9.024;2023-04-24T07:22:50;2.08;;;1.92;;
15667;SDS011;7934;48.710;9.024;2023-04-24T07:25:19;1.92;;;1.80;;
15667;SDS011;7934;48.710;9.024;2023-04-24T07:27:49;1.88;;;1.77;;
15667;SDS011;7934;48.710;9.024;2023-04-24T07:30:16;2.80;;;1.42;;
15667;SDS011;7934;48.710;9.024;2023-04-24T07:32:43;1.58;;;1.38;;
15667;SDS011;7934;48.710;9.024;2023-04-24T07:35:11;1.60;;;1.50;;
15667;SDS011;7934;48.710;9.024;2023-04-24T07:37:38;1.63;;;1.52;;
15667;SDS011;7934;48.710;9.024;2023-04-24T07:40:07;1.58;;;1.48;;
15667;SDS011;7934;48.710;9.024;2023-04-24T07:42:34;1.40;;;1.30;;
15667;SDS011;7934;48.710;9.024;2023-04-24T07:45:01;2.45;;;1.40;;
15667;SDS011;7934;48.710;9.024;2023-04-24T07:47:28;1.90;;;1.63;;
15667;SDS011;7934;48.710;9.024;2023-04-24T07:49:55;1.25;;;1.25;;
15667;SDS011;7934;48.710;9.024;2023-04-24T07:52:23;1.37;;;1.30;;
15667;SDS011;7934;48.710;9.024;2023-04-24T07:54:50;1.35;;;1.30;;
15667;SDS011;7934;48.710;9.024;2023-04-24T07:57:27;1.38;;;1.23;;
15667;SDS011;7934;48.710;9.024;2023-04-24T07:59:55;2.50;;;1.52;;
15667;SDS011;7934;48.710;9.024;2023-04-24T08:02:22;2.25;;;1.60;;
15667;SDS011;7934;48.710;9.024;2023-04-24T08:04:51;1.40;;;1.30;;
15667;SDS011;7934;48.710;9.024;2023-04-24T08:07:19;1.60;;;1.50;;
15667;SDS011;7934;48.710;9.024;2023-04-24T08:09:46;2.38;;;1.40;;
15667;SDS011;7934;48.710;9.024;2023-04-24T08:12:13;1.60;;;1.40;;
15667;SDS011;7934;48.710;9.024;2023-04-24T08:14:41;1.67;;;1.58;;
15667;SDS011;7934;48.710;9.024;2023-04-24T08:17:08;2.08;;;1.40;;
15667;SDS011;7934;48.710;9.024;2023-04-24T08:19:36;1.60;;;1.50;;
15667;SDS011;7934;48.710;9.024;2023-04-24T08:22:03;1.85;;;1.38;;
15667;SDS011;7934;48.710;9.024;2023-04-24T08:24:30;1.33;;;1.23;;
15667;SDS011;7934;48.710;9.024;2023-04-24T08:26:57;1.40;;;1.30;;
15667;SDS011;7934;48.710;9.024;2023-04-24T08:29:24;2.13;;;1.30;;
15667;SDS011;7934;48.710;9.024;2023-04-24T08:31:53;2.13;;;1.35;;
15667;SDS011;7934;48.710;9.024;2023-04-24T08:34:20;1.67;;;1.40;;
15667;SDS011;7934;48.710;9.024;2023-04-24T08:36:47;1.75;;;1.48;;
15667;SDS011;7934;48.710;9.024;2023-04-24T08:39:15;1.30;;;1.30;;
15667;SDS011;7934;48.710;9.024;2023-04-24T08:41:42;1.50;;;1.40;;
15667;SDS011;7934;48.710;9.024;2023-04-24T08:44:10;1.95;;;1.35;;
15667;SDS011;7934;48.710;9.024;2023-04-24T08:46:37;1.60;;;1.30;;
15667;SDS011;7934;48.710;9.024;2023-04-24T08:49:07;1.40;;;1.30;;
15667;SDS011;7934;48.710;9.024;2023-04-24T08:51:35;1.77;;;1.30;;
15667;SDS011;7934;48.710;9.024;2023-04-24T08:54:03;2.00;;;1.60;;
15667;SDS011;7934;48.710;9.024;2023-04-24T08:56:32;1.90;;;1.60;;
15667;SDS011;7934;48.710;9.024;2023-04-24T08:59:02;1.73;;;1.63;;
15667;SDS011;7934;48.710;9.024;2023-04-24T09:01:30;3.88;;;1.55;;
15667;SDS011;7934;48.710;9.024;2023-04-24T09:03:59;1.92;;;1.77;;
15667;SDS011;7934;48.710;9.024;2023-04-24T09:06:28;1.70;;;1.40;;
15667;SDS011;7934;48.710;9.024;2023-04-24T09:08:57;2.00;;;1.60;;
15667;SDS011;7934;48.710;9.024;2023-04-24T09:11:27;1.65;;;1.58;;
15667;SDS011;7934;48.710;9.024;2023-04-24T09:13:54;2.03;;;1.70;;
15667;SDS011;7934;48.710;9.024;2023-04-24T09:16:21;2.38;;;1.50;;
15667;SDS011;7934;48.710;9.024;2023-04-24T09:18:49;3.53;;;1.52;;
15667;SDS011;7934;48.710;9.024;2023-04-24T09:21:16;2.28;;;1.70;;
15667;SDS011;7934;48.710;9.024;2023-04-24T09:23:44;2.13;;;1.38;;
15667;SDS011;7934;48.710;9.024;2023-04-24T09:26:12;3.00;;;1.30;;
15667;SDS011;7934;48.710;9.024;2023-04-24T09:28:40;4.53;;;1.50;;
15667;SDS011;7934;48.710;9.024;2023-04-24T09:31:09;1.30;;;1.27;;
15667;SDS011;7934;48.710;9.024;2023-04-24T09:33:36;1.40;;;1.15;;
15667;SDS011;7934;48.710;9.024;2023-04-24T09:36:04;1.30;;;1.20;;
15667;SDS011;7934;48.710;9.024;2023-04-24T09:38:32;2.67;;;1.35;;
15667;SDS011;7934;48.710;9.024;2023-04-24T09:41:01;1.20;;;1.10;;
15667;SDS011;7934;48.710;9.024;2023-04-24T09:43:28;1.00;;;1.00;;
15667;SDS011;7934;48.710;9.024;2023-04-24T09:45:56;4.57;;;1.30;;
15667;SDS011;7934;48.710;9.024;2023-04-24T09:48:30;1.35;;;1.15;;
15667;SDS011;7934;48.710;9.024;2023-04-24T09:50:57;1.42;;;1.23;;
15667;SDS011;7934;48.710;9.024;2023-04-24T09:53:25;1.40;;;1.20;;
15667;SDS011;7934;48.710;9.024;2023-04-24T09:55:53;1.83;;;1.15;;
15667;SDS011;7934;48.710;9.024;2023-04-24T09:58:25;1.27;;;1.27;;
15667;SDS011;7934;48.710;9.024;2023-04-24T10:00:54;1.40;;;1.10;;
15667;SDS011;7934;48.710;9.024;2023-04-24T10:03:23;1.38;;;1.27;;
15667;SDS011;7934;48.710;9.024;2023-04-24T10:05:52;1.60;;;1.50;;
15667;SDS011;7934;48.710;9.024;2023-04-24T10:08:20;1.33;;;1.17;;
15667;SDS011;7934;48.710;9.024;2023-04-24T10:10:48;1.40;;;1.30;;
15667;SDS011;7934;48.710;9.024;2023-04-24T10:13:15;1.07;;;1.07;;
15667;SDS011;7934;48.710;9.024;2023-04-24T10:15:43;2.53;;;1.50;;
15667;SDS011;7934;48.710;9.024;2023-04-24T10:18:11;2.40;;;1.10;;
15667;SDS011;7934;48.710;9.024;2023-04-24T10:20:39;1.25;;;1.20;;
15667;SDS011;7934;48.710;9.024;2023-04-24T10:23:06;1.40;;;1.30;;
15667;SDS011;7934;48.710;9.024;2023-04-24T10:25:34;1.20;;;1.20;;
15667;SDS011;7934;48.710;9.024;2023-04-24T10:28:02;1.15;;;1.10;;
15667;SDS011;7934;48.710;9.024;2023-04-24T10:30:30;1.67;;;1.30;;
15667;SDS011;7934;48.710;9.024;2023-04-24T10:33:01;2.05;;;1.20;;
15667;SDS011;7934;48.710;9.024;2023-04-24T10:35:30;1.85;;;1.35;;
15667;SDS011;7934;48.710;9.024;2023-04-24T10:37:58;1.20;;;1.10;;
15667;SDS011;7934;48.710;9.024;2023-04-24T10:40:26;1.40;;;1.30;;
15667;SDS011;7934;48.710;9.024;2023-04-24T10:42:54;1.00;;;1.00;;
15667;SDS011;7934;48.710;9.024;2023-04-24T10:45:23;1.88;;;1.60;;
15667;SDS011;7934;48.710;9.024;2023-04-24T10:47:51;1.35;;;1.20;;
15667;SDS011;7934;48.710;9.024;2023-04-24T10:50:19;2.10;;;1.55;;
15667;SDS011;7934;48.710;9.024;2023-04-24T10:52:47;1.30;;;1.20;;
15667;SDS011;7934;48.710;9.024;2023-04-24T10:55:16;1.15;;;0.93;;
15667;SDS011;7934;48.710;9.024;2023-04-24T11:00:25;1.60;;;1.50;;
15667;SDS011;7934;48.710;9.024;2023-04-24T11:02:53;1.20;;;1.20;;
15667;SDS011;7934;48.710;9.024;2023-04-24T11:05:22;1.33;;;1.23;;
15667;SDS011;7934;48.710;9.024;2023-04-24T11:10:37;1.83;;;1.20;;
15667;SDS011;7934;48.710;9.024;2023-04-24T11:13:04;1.55;;;1.42;;
15667;SDS011;7934;48.710;9.024;2023-04-24T11:15:31;1.50;;;1.40;;
15667;SDS011;7934;48.710;9.024;2023-04-24T11:17:58;1.90;;;1.70;;
15667;SDS011;7934;48.710;9.024;2023-04-24T11:20:27;1.42;;;1.33;;
15667;SDS011;7934;48.710;9.024;2023-04-24T11:22:55;1.50;;;1.40;;
15667;SDS011;7934;48.710;9.024;2023-04-24T11:25:22;2.70;;;1.40;;
15667;SDS011;7934;48.710;9.024;2023-04-24T11:27:50;0.90;;;0.90;;
15667;SDS011;7934;48.710;9.024;2023-04-24T11:30:17;0.85;;;0.85;;
15667;SDS011;7934;48.710;9.024;2023-04-24T11:32:47;0.90;;;0.90;;
15667;SDS011;7934;48.710;9.024;2023-04-24T11:35:15;1.60;;;1.30;;
15667;SDS011;7934;48.710;9.024;2023-04-24T11:37:44;1.40;;;1.30;;
15667;SDS011;7934;48.710;9.024;2023-04-24T11:40:12;1.65;;;1.50;;
15667;SDS011;7934;48.710;9.024;2023-04-24T11:42:41;1.50;;;1.40;;
15667;SDS011;7934;48.710;9.024;2023-04-24T11:45:09;2.20;;;1.67;;
15667;SDS011;7934;48.710;9.024;2023-04-24T11:47:36;1.60;;;1.50;;
15667;SDS011;7934;48.710;9.024;2023-04-24T11:50:04;1.40;;;1.30;;
15667;SDS011;7934;48.710;9.024;2023-04-24T11:52:32;1.70;;;1.60;;
15667;SDS011;7934;48.710;9.024;2023-04-24T11:55:01;1.75;;;1.60;;
15667;SDS011;7934;48.710;9.024;2023-04-24T11:57:28;1.90;;;1.30;;
15667;SDS011;7934;48.710;9.024;2023-04-24T11:59:58;1.55;;;1.35;;
15667;SDS011;7934;48.710;9.024;2023-04-24T12:02:26;1.40;;;1.30;;
15667;SDS011;7934;48.710;9.024;2023-04-24T12:04:54;1.55;;;1.50;;
15667;SDS011;7934;48.710;9.024;2023-04-24T12:07:21;1.48;;;1.30;;
15667;SDS011;7934;48.710;9.024;2023-04-24T12:09:50;2.20;;;1.70;;
15667;SDS011;7934;48.710;9.024;2023-04-24T12:12:24;1.48;;;1.38;;
15667;SDS011;7934;48.710;9.024;2023-04-24T12:14:53;1.60;;;1.50;;
15667;SDS011;7934;48.710;9.024;2023-04-24T12:17:23;1.50;;;1.40;;
15667;SDS011;7934;48.710;9.024;2023-04-24T12:19:51;2.03;;;1.70;;
15667;SDS011;7934;48.710;9.024;2023-04-24T12:22:18;1.60;;;1.50;;
15667;SDS011;7934;48.710;9.024;2023-04-24T12:24:58;1.60;;;1.50;;
15667;SDS011;7934;48.710;9.024;2023-04-24T12:27:28;2.17;;;1.63;;
15667;SDS011;7934;48.710;9.024;2023-04-24T12:29:55;3.30;;;1.83;;
15667;SDS011;7934;48.710;9.024;2023-04-24T12:32:22;1.47;;;1.47;;
15667;SDS011;7934;48.710;9.024;2023-04-24T12:34:50;1.65;;;1.55;;
15667;SDS011;7934;48.710;9.024;2023-04-24T12:37:17;2.35;;;1.52;;
15667;SDS011;7934;48.710;9.024;2023-04-24T12:39:57;1.40;;;1.30;;
15667;SDS011;7934;48.710;9.024;2023-04-24T12:42:25;1.70;;;1.30;;
15667;SDS011;7934;48.710;9.024;2023-04-24T12:44:56;1.05;;;1.05;;
15667;SDS011;7934;48.710;9.024;2023-04-24T12:47:25;2.08;;;1.27;;
15667;SDS011;7934;48.710;9.024;2023-04-24T12:49:52;1.47;;;1.37;;
15667;SDS011;7934;48.710;9.024;2023-04-24T12:52:20;1.40;;;1.30;;
15667;SDS011;7934;48.710;9.024;2023-04-24T12:54:49;1.30;;;1.20;;
15667;SDS011;7934;48.710;9.024;2023-04-24T12:57:16;1.57;;;1.47;;
15667;SDS011;7934;48.710;9.024;2023-04-24T12:59:44;2.15;;;1.92;;
15667;SDS011;7934;48.710;9.024;2023-04-24T13:02:15;1.95;;;1.80;;
15667;SDS011;7934;48.710;9.024;2023-04-24T13:04:43;1.80;;;1.70;;
15667;SDS011;7934;48.710;9.024;2023-04-24T13:07:11;2.03;;;1.92;;
15667;SDS011;7934;48.710;9.024;2023-04-24T13:09:39;1.70;;;1.60;;
15667;SDS011;7934;48.710;9.024;2023-04-24T13:12:06;1.90;;;1.83;;
15667;SDS011;7934;48.710;9.024;2023-04-24T13:14:33;1.90;;;1.80;;
15667;SDS011;7934;48.710;9.024;2023-04-24T13:17:00;2.20;;;2.10;;
15667;SDS011;7934;48.710;9.024;2023-04-24T13:19:29;2.60;;;1.90;;
15667;SDS011;7934;48.710;9.024;2023-04-24T13:21:59;3.35;;;1.60;;
15667;SDS011;7934;48.710;9.024;2023-04-24T13:24:26;1.90;;;1.80;;
15667;SDS011;7934;48.710;9.024;2023-04-24T13:26:53;2.80;;;1.80;;
15667;SDS011;7934;48.710;9.024;2023-04-24T13:29:21;2.00;;;1.90;;
15667;SDS011;7934;48.710;9.024;2023-04-24T13:31:51;2.07;;;1.80;;
15667;SDS011;7934;48.710;9.024;2023-04-24T13:34:20;2.88;;;1.50;;
15667;SDS011;7934;48.710;9.024;2023-04-24T13:36:48;1.60;;;1.50;;
15667;SDS011;7934;48.710;9.024;2023-04-24T13:39:16;1.50;;;1.35;;
15667;SDS011;7934;48.710;9.024;2023-04-24T13:41:43;1.80;;;1.70;;
15667;SDS011;7934;48.710;9.024;2023-04-24T13:44:12;1.80;;;1.70;;
15667;SDS011;7934;48.710;9.024;2023-04-24T13:46:39;2.00;;;1.90;;
15667;SDS011;7934;48.710;9.024;2023-04-24T13:49:06;2.25;;;1.60;;
15667;SDS011;7934;48.710;9.024;2023-04-24T13:51:33;2.00;;;1.70;;
15667;SDS011;7934;48.710;9.024;2023-04-24T13:54:02;1.77;;;1.67;;
15667;SDS011;7934;48.710;9.024;2023-04-24T13:56:29;2.00;;;1.90;;
15667;SDS011;7934;48.710;9.024;2023-04-24T13:58:56;1.85;;;1.75;;
15667;SDS011;7934;48.710;9.024;2023-04-24T14:01:23;1.85;;;1.70;;
15667;SDS011;7934;48.710;9.024;2023-04-24T14:03:50;1.60;;;1.60;;
15667;SDS011;7934;48.710;9.024;2023-04-24T14:06:17;2.25;;;2.05;;
15667;SDS011;7934;48.710;9.024;2023-04-24T14:08:44;2.17;;;2.08;;
15667;SDS011;7934;48.710;9.024;2023-04-24T14:11:13;3.57;;;2.07;;
15667;SDS011;7934;48.710;9.024;2023-04-24T14:13:41;2.83;;;2.63;;
15667;SDS011;7934;48.710;9.024;2023-04-24T14:16:08;2.45;;;2.35;;
15667;SDS011;7934;48.710;9.024;2023-04-24T14:18:36;2.70;;;2.60;;
15667;SDS011;7934;48.710;9.024;2023-04-24T14:21:03;3.80;;;3.03;;
15667;SDS011;7934;48.710;9.024;2023-04-24T14:23:30;2.90;;;2.70;;
15667;SDS011;7934;48.710;9.024;2023-04-24T14:25:57;2.80;;;2.60;;
15667;SDS011;7934;48.710;9.024;2023-04-24T14:28:26;3.38;;;3.08;;
15667;SDS011;7934;48.710;9.024;2023-04-24T14:30:53;3.10;;;2.80;;
15667;SDS011;7934;48.710;9.024;2023-04-24T14:33:20;2.45;;;2.35;;
15667;SDS011;7934;48.710;9.024;2023-04-24T14:35:48;2.30;;;2.10;;
15667;SDS011;7934;48.710;9.024;2023-04-24T14:38:15;2.20;;;2.10;;
15667;SDS011;7934;48.710;9.024;2023-04-24T14:40:44;2.60;;;2.50;;
15667;SDS011;7934;48.710;9.024;2023-04-24T14:43:11;4.95;;;2.55;;
15667;SDS011;7934;48.710;9.024;2023-04-24T14:45:39;2.65;;;2.45;;
15667;SDS011;7934;48.710;9.024;2023-04-24T14:48:07;2.30;;;2.10;;
15667;SDS011;7934;48.710;9.024;2023-04-24T14:50:34;2.50;;;2.17;;
15667;SDS011;7934;48.710;9.024;2023-04-24T14:53:01;2.17;;;2.07;;
15667;SDS011;7934;48.710;9.024;2023-04-24T14:55:29;3.17;;;2.15;;
15667;SDS011;7934;48.710;9.024;2023-04-24T14:58:00;2.00;;;1.90;;
15667;SDS011;7934;48.710;9.024;2023-04-24T15:00:27;2.20;;;2.08;;
15667;SDS011;7934;48.710;9.024;2023-04-24T15:02:56;1.90;;;1.80;;
15667;SDS011;7934;48.710;9.024;2023-04-24T15:05:23;3.40;;;2.20;;
15667;SDS011;7934;48.710;9.024;2023-04-24T15:07:50;2.30;;;2.15;;
15667;SDS011;7934;48.710;9.024;2023-04-24T15:10:18;2.20;;;2.10;;
15667;SDS011;7934;48.710;9.024;2023-04-24T15:12:47;3.63;;;2.05;;
15667;SDS011;7934;48.710;9.024;2023-04-24T15:15:15;2.28;;;2.08;;
15667;SDS011;7934;48.710;9.024;2023-04-24T15:17:44;2.20;;;2.10;;
15667;SDS011;7934;48.710;9.024;2023-04-24T15:20:12;2.63;;;2.00;;
15667;SDS011;7934;48.710;9.024;2023-04-24T15:22:40;2.75;;;2.20;;
15667;SDS011;7934;48.710;9.024;2023-04-24T15:25:07;2.35;;;2.15;;
15667;SDS011;7934;48.710;9.024;2023-04-24T15:27:41;4.18;;;2.67;;
15667;SDS011;7934;48.710;9.024;2023-04-24T15:30:08;3.55;;;2.00;;
15667;SDS011;7934;48.710;9.024;2023-04-24T15:32:36;4.32;;;2.20;;
15667;SDS011;7934;48.710;9.024;2023-04-24T15:35:03;1.95;;;1.85;;
15667;SDS011;7934;48.710;9.024;2023-04-24T15:37:38;3.10;;;2.33;;
15667;SDS011;7934;48.710;9.024;2023-04-24T15:40:16;2.10;;;2.00;;
15667;SDS011;7934;48.710;9.024;2023-04-24T15:42:44;2.40;;;2.20;;
15667;SDS011;7934;48.710;9.024;2023-04-24T15:45:13;2.97;;;2.20;;
15667;SDS011;7934;48.710;9.024;2023-04-24T15:47:43;3.13;;;2.63;;
15667;SDS011;7934;48.710;9.024;2023-04-24T15:50:13;2.30;;;2.20;;
15667;SDS011;7934;48.710;9.024;2023-04-24T15:52:45;2.55;;;2.40;;
15667;SDS011;7934;48.710;9.024;2023-04-24T15:55:12;2.10;;;2.00;;
15667;SDS011;7934;48.710;9.024;2023-04-24T15:57:39;2.33;;;2.20;;
15667;SDS011;7934;48.710;9.024;2023-04-24T16:00:07;2.80;;;2.00;;
15667;SDS011;7934;48.710;9.024;2023-04-24T16:02:35;1.98;;;1.80;;
15667;SDS011;7934;48.710;9.024;2023-04-24T16:05:02;2.40;;;1.80;;
15667;SDS011;7934;48.710;9.024;2023-04-24T16:07:29;1.98;;;1.88;;
15667;SDS011;7934;48.710;9.024;2023-04-24T16:10:01;2.80;;;1.98;;
15667;SDS011;7934;48.710;9.024;2023-04-24T16:12:31;3.67;;;1.80;;
15667;SDS011;7934;48.710;9.024;2023-04-24T16:14:58;1.95;;;1.73;;
15667;SDS011;7934;48.710;9.024;2023-04-24T16:17:25;2.10;;;2.00;;
15667;SDS011;7934;48.710;9.024;2023-04-24T16:19:53;3.05;;;2.80;;
15667;SDS011;7934;48.710;9.024;2023-04-24T16:22:23;2.65;;;2.20;;
15667;SDS011;7934;48.710;9.024;2023-04-24T16:24:51;2.30;;;2.00;;
15667;SDS011;7934;48.710;9.024;2023-04-24T16:30:01;2.30;;;2.20;;
15667;SDS011;7934;48.710;9.024;2023-04-24T16:32:29;2.63;;;2.10;;
15667;SDS011;7934;48.710;9.024;2023-04-24T16:34:56;1.73;;;1.63;;